Time;durP1;ratioP1;P1;durP2;ratioP2;P2;SDS_P1;SDS_P2;PMS_P1;PMS_P2;Temp;Humidity;BMP_temperature;BMP_pressure;BME280_temperature;BME280_humidity;BME280_pressure;Samples;Min_cycle;Max_cycle;Signal;HPM_P1;HPM_P2
2023/05/03 00:00:26;;;;;;;;;;;12.10;73.10;;;11.16;67.04;96736.69;4937857;29;20232;-85
2023/05/03 00:02:56;;;;;;;;;;;12.10;73.00;;;11.15;67.45;96735.03;4954220;29;19929;-84
2023/05/03 00:05:25;;;;;;;;;;;12.10;73.00;;;11.16;67.23;96739.44;4954442;29;19922;-85
2023/05/03 00:07:53;;;;;;;;;;;12.10;73.10;;;11.14;67.24;96730.66;4955370;29;19922;-86
2023/05/03 00:10:21;;;;;;;;;;;12.10;73.20;;;11.14;67.27;96725.16;4937737;29;20236;-85
2023/05/03 00:12:49;;;;;;;;;;;12.10;74.00;;;11.14;66.82;96714.19;4938073;29;19929;-85
2023/05/03 00:15:17;;;;;;;;;;;12.10;73.00;;;11.14;67.12;96719.69;4954257;28;20125;-85
2023/05/03 00:17:47;;;;;;;;;;;12.10;73.00;;;11.13;67.40;96720.78;4955253;29;20228;-85
2023/05/03 00:20:16;;;;;;;;;;;12.10;74.00;;;11.13;67.15;96715.28;4937494;29;19922;-85
2023/05/03 00:22:44;;;;;;;;;;;12.10;73.00;;;11.12;66.90;96714.44;4953811;29;20195;-85
2023/05/03 00:25:12;;;;;;;;;;;12.10;72.80;;;11.12;67.04;96708.16;4954145;29;20107;-85
2023/05/03 00:27:40;;;;;;;;;;;12.10;72.90;;;11.11;67.16;96709.25;4953988;29;19922;-85
2023/05/03 00:30:09;;;;;;;;;;;12.10;73.10;;;11.12;67.33;96710.91;4953475;29;20113;-85
2023/05/03 00:32:37;;;;;;;;;;;12.10;73.10;;;11.12;67.04;96699.94;4937979;29;20127;-85
2023/05/03 00:35:08;;;;;;;;;;;12.10;73.10;;;11.07;67.17;96697.16;4954088;29;19922;-85
2023/05/03 00:37:37;;;;;;;;;;;12.10;73.00;;;11.11;66.99;96698.28;4937752;29;19922;-85
2023/05/03 00:40:06;;;;;;;;;;;12.10;73.00;;;11.10;67.19;96699.38;4937494;29;19929;-85
2023/05/03 00:42:35;;;;;;;;;;;12.10;72.90;;;11.09;67.32;96703.19;4953386;29;19923;-85
2023/05/03 00:45:04;;;;;;;;;;;12.10;73.00;;;11.08;67.22;96701.53;4937986;29;20126;-85
2023/05/03 00:47:32;;;;;;;;;;;12.10;72.80;;;11.08;66.99;96701.53;4937659;29;20126;-85
2023/05/03 00:50:01;;;;;;;;;;;12.10;72.90;;;11.09;67.10;96705.94;4937313;29;19937;-84
2023/05/03 00:52:31;;;;;;;;;;;12.10;73.00;;;11.08;66.94;96713.34;4934451;29;20126;-85
2023/05/03 00:54:59;;;;;;;;;;;12.10;72.90;;;11.07;67.06;96713.56;4934519;29;19922;-85
2023/05/03 00:57:27;;;;;;;;;;;12.10;72.80;;;11.07;66.70;96719.06;4950267;29;19923;-85
2023/05/03 00:59:56;;;;;;;;;;;12.10;72.70;;;11.07;66.79;96721.81;4933968;29;19930;-85
2023/05/03 01:02:24;;;;;;;;;;;12.10;72.80;;;11.05;67.04;96722.88;4934353;29;19922;-85
2023/05/03 01:04:52;;;;;;;;;;;12.00;72.70;;;11.02;66.71;96723.44;4934395;29;19923;-85
2023/05/03 01:07:23;;;;;;;;;;;12.00;72.50;;;11.05;67.24;96727.56;4951698;29;19922;-85
2023/05/03 01:10:01;;;;;;;;;;;12.00;72.70;;;11.05;67.38;96733.84;4937063;29;19929;-85
2023/05/03 01:12:34;;;;;;;;;;;12.00;73.00;;;11.04;67.10;96723.97;4953319;29;19929;-85
2023/05/03 01:15:06;;;;;;;;;;;12.00;72.80;;;11.04;67.01;96729.44;4937575;29;19922;-85
2023/05/03 01:17:36;;;;;;;;;;;12.00;73.00;;;11.04;66.90;96736.84;4953130;29;19945;-86
2023/05/03 01:20:07;;;;;;;;;;;12.00;72.90;;;11.03;67.31;96736.03;4952660;29;19922;-84
2023/05/03 01:22:38;;;;;;;;;;;12.00;73.00;;;11.04;66.74;96731.38;4936833;29;20206;-85
2023/05/03 01:25:09;;;;;;;;;;;12.00;72.80;;;11.03;67.01;96721.50;4934072;29;20121;-85
2023/05/03 01:27:37;;;;;;;;;;;12.00;72.90;;;11.03;67.26;96730.56;4918116;29;19929;-84
2023/05/03 01:30:06;;;;;;;;;;;12.00;73.00;;;11.02;67.51;96728.91;4917626;29;19923;-85
2023/05/03 01:32:41;;;;;;;;;;;12.00;72.90;;;11.02;66.85;96728.91;4917966;29;20356;-85
2023/05/03 01:35:12;;;;;;;;;;;12.00;72.90;;;11.02;67.14;96728.91;4934069;29;20240;-85
2023/05/03 01:37:40;;;;;;;;;;;12.00;73.00;;;11.02;67.22;96728.06;4933829;29;19929;-86
2023/05/03 01:40:10;;;;;;;;;;;12.00;72.70;;;11.01;67.34;96721.78;4933450;29;20222;-84
2023/05/03 01:42:38;;;;;;;;;;;12.00;72.90;;;11.02;67.11;96728.06;4933639;29;20005;-85
2023/05/03 01:45:07;;;;;;;;;;;12.00;72.90;;;11.00;67.14;96720.13;4918072;29;19931;-85
2023/05/03 01:47:35;;;;;;;;;;;12.00;72.80;;;11.01;66.92;96720.94;4933742;29;19922;-84
2023/05/03 01:50:03;;;;;;;;;;;12.00;72.80;;;11.00;66.89;96727.50;4933236;29;20118;-84
2023/05/03 01:52:31;;;;;;;;;;;12.00;72.70;;;10.97;66.88;96726.09;4949503;29;19937;-84
2023/05/03 01:54:59;;;;;;;;;;;12.00;72.60;;;10.99;66.80;96734.91;4917964;29;20117;-85
2023/05/03 01:57:29;;;;;;;;;;;12.00;72.60;;;10.99;66.86;96734.91;4933504;29;19929;-85
2023/05/03 01:59:58;;;;;;;;;;;12.00;72.40;;;10.98;66.70;96732.41;4917302;29;19929;-85
2023/05/03 02:02:26;;;;;;;;;;;12.00;72.50;;;10.98;66.72;96733.25;4949260;29;19922;-85
2023/05/03 02:04:54;;;;;;;;;;;12.00;72.60;;;10.97;66.90;96737.06;4933596;29;20222;-85
2023/05/03 02:07:22;;;;;;;;;;;12.00;72.40;;;10.96;66.81;96732.66;4933443;29;20215;-85
2023/05/03 02:09:50;;;;;;;;;;;12.00;72.60;;;10.97;66.80;96731.59;4917121;29;19929;-85
2023/05/03 02:12:18;;;;;;;;;;;12.00;72.50;;;10.96;66.72;96735.41;4933357;29;20214;-85
2023/05/03 02:14:48;;;;;;;;;;;12.00;72.40;;;10.96;66.92;96732.66;4933083;29;19945;-84
2023/05/03 02:17:16;;;;;;;;;;;11.90;72.50;;;10.96;66.60;96737.34;4933157;29;19923;-85
2023/05/03 02:19:44;;;;;;;;;;;11.90;72.50;;;10.96;66.76;96729.94;4916791;29;20121;-85
2023/05/03 02:22:12;;;;;;;;;;;11.90;72.70;;;10.96;66.75;96734.59;4933284;29;19929;-85
2023/05/03 02:24:40;;;;;;;;;;;11.90;72.50;;;10.94;66.71;96743.06;4933260;29;20154;-85
2023/05/03 02:27:08;;;;;;;;;;;11.90;72.40;;;10.94;66.90;96737.59;4917474;29;19923;-85
2023/05/03 02:29:36;;;;;;;;;;;11.90;72.70;;;10.94;66.88;96736.78;4932637;29;19923;-85
2023/05/03 02:32:07;;;;;;;;;;;11.90;72.70;;;10.95;66.89;96743.91;4933164;29;19923;-84
2023/05/03 02:34:35;;;;;;;;;;;11.90;72.70;;;10.93;67.12;96741.41;4933221;29;19922;-85
2023/05/03 02:37:04;;;;;;;;;;;11.90;72.80;;;10.93;66.71;96735.94;4948337;29;19945;-84
2023/05/03 02:39:32;;;;;;;;;;;11.90;72.70;;;10.93;66.93;96751.56;4931650;29;19929;-85
2023/05/03 02:42:01;;;;;;;;;;;11.90;72.60;;;10.90;66.92;96748.25;4917364;29;20222;-85
2023/05/03 02:44:29;;;;;;;;;;;11.90;72.60;;;10.92;66.59;96747.97;4917101;29;20218;-85
2023/05/03 02:46:57;;;;;;;;;;;11.90;72.50;;;10.92;66.42;96753.44;4932879;29;19923;-85
2023/05/03 02:49:28;;;;;;;;;;;11.90;72.50;;;10.92;66.71;96747.16;4935581;29;19929;-85
2023/05/03 02:51:56;;;;;;;;;;;11.90;72.50;;;10.90;66.54;96742.75;4936200;29;19929;-85
2023/05/03 02:54:25;;;;;;;;;;;11.90;72.50;;;10.90;66.84;96748.25;4936156;29;20137;-85
2023/05/03 02:56:53;;;;;;;;;;;11.90;72.60;;;10.89;66.97;96749.31;4952065;29;19929;-86
2023/05/03 02:59:21;;;;;;;;;;;11.90;72.50;;;10.90;66.83;96750.97;4951215;29;20122;-85
2023/05/03 03:01:49;;;;;;;;;;;11.90;72.60;;;10.90;66.76;96752.91;4935961;29;19923;-86
2023/05/03 03:04:18;;;;;;;;;;;11.90;72.50;;;10.90;66.60;96750.97;4951713;29;19960;-86
2023/05/03 03:06:47;;;;;;;;;;;11.90;72.60;;;10.88;66.70;96753.13;4951956;29;19929;-86
2023/05/03 03:09:16;;;;;;;;;;;11.90;72.70;;;10.88;66.68;96750.41;4951246;29;19926;-86
2023/05/03 03:11:45;;;;;;;;;;;11.90;72.70;;;10.90;67.08;96752.91;4967967;28;20251;-86
2023/05/03 03:14:14;;;;;;;;;;;11.90;72.70;;;10.89;67.28;96751.25;4935759;29;19923;-85
2023/05/03 03:16:42;;;;;;;;;;;11.90;72.90;;;10.88;66.68;96757.81;4935964;29;19929;-86
2023/05/03 03:19:10;;;;;;;;;;;11.90;72.90;;;10.88;66.91;96755.88;4935080;29;20210;-85
2023/05/03 03:21:38;;;;;;;;;;;11.90;72.70;;;10.89;67.29;96751.25;4951714;29;20228;-85
2023/05/03 03:24:08;;;;;;;;;;;11.80;72.80;;;10.88;67.02;96749.59;4951500;29;20210;-85
2023/05/03 03:26:36;;;;;;;;;;;11.80;72.70;;;10.87;67.00;96753.41;4953849;29;19922;-85
2023/05/03 03:29:04;;;;;;;;;;;11.80;72.80;;;10.88;67.05;96755.88;4938231;29;20095;-85
2023/05/03 03:31:33;;;;;;;;;;;11.90;72.80;;;10.89;66.87;96757.53;4939055;29;19937;-84
2023/05/03 03:34:01;;;;;;;;;;;11.90;72.80;;;10.92;66.79;96752.63;4970673;28;19922;-85
2023/05/03 03:36:31;;;;;;;;;;;11.90;72.40;;;10.91;66.70;96754.53;4954937;28;19922;-85
2023/05/03 03:38:59;;;;;;;;;;;11.90;72.60;;;10.92;66.81;96753.44;4938202;29;19922;-84
2023/05/03 03:41:29;;;;;;;;;;;11.90;72.40;;;10.94;66.77;96748.53;4939058;29;19923;-85
2023/05/03 03:43:58;;;;;;;;;;;11.90;72.30;;;10.95;66.61;96761.16;4954854;29;19923;-85
2023/05/03 03:46:26;;;;;;;;;;;11.90;72.30;;;10.97;66.58;96761.72;4954633;29;19922;-85
2023/05/03 03:48:57;;;;;;;;;;;12.00;72.10;;;10.98;66.25;96760.63;4938269;29;20236;-86
2023/05/03 03:51:28;;;;;;;;;;;12.00;72.10;;;11.02;65.97;96763.69;4938640;29;19928;-86
2023/05/03 03:53:56;;;;;;;;;;;12.00;71.90;;;11.00;66.36;96763.09;4938619;29;19944;-86
2023/05/03 03:56:29;;;;;;;;;;;12.00;71.90;;;11.04;66.27;96770.53;4954528;28;19929;-85
2023/05/03 03:58:58;;;;;;;;;;;12.00;71.80;;;11.06;66.34;96770.31;4953870;29;19937;-85
2023/05/03 04:01:26;;;;;;;;;;;12.00;71.70;;;11.06;65.72;96770.31;4938831;29;19923;-85
2023/05/03 04:03:55;;;;;;;;;;;12.10;71.70;;;11.09;65.69;96771.69;4954449;29;19923;-86
2023/05/03 04:06:24;;;;;;;;;;;12.10;71.60;;;11.08;66.29;96768.13;4970433;28;20138;-85
2023/05/03 04:08:52;;;;;;;;;;;12.10;71.70;;;11.12;66.21;96780.22;4937909;29;19922;-85
2023/05/03 04:11:21;;;;;;;;;;;12.10;71.80;;;11.13;65.85;96778.31;4954317;29;19923;-85
2023/05/03 04:13:56;;;;;;;;;;;12.10;71.90;;;11.14;66.31;96779.97;4938310;29;19928;-85
2023/05/03 04:16:24;;;;;;;;;;;12.10;71.90;;;11.14;66.43;96777.22;4954125;29;19926;-85
2023/05/03 04:18:52;;;;;;;;;;;12.10;71.90;;;11.13;66.36;96784.59;4937668;29;19929;-85
2023/05/03 04:21:20;;;;;;;;;;;12.10;72.00;;;11.15;66.33;96787.91;4954132;29;19923;-85
2023/05/03 04:23:49;;;;;;;;;;;12.10;72.10;;;11.12;66.59;96780.22;4938028;29;19929;-84
2023/05/03 04:26:21;;;;;;;;;;;12.10;72.20;;;11.14;66.75;96785.44;4953796;29;19922;-86
2023/05/03 04:28:50;;;;;;;;;;;12.10;72.20;;;11.14;66.47;96793.66;4953569;29;20113;-86
2023/05/03 04:31:21;;;;;;;;;;;12.10;72.20;;;11.14;66.86;96790.94;4953870;29;19929;-86
2023/05/03 04:33:53;;;;;;;;;;;12.10;72.50;;;11.15;66.74;96795.31;4937893;29;19923;-85
2023/05/03 04:36:24;;;;;;;;;;;12.10;72.50;;;11.16;66.62;96796.97;4969898;28;19922;-84
2023/05/03 04:38:53;;;;;;;;;;;12.10;72.50;;;11.15;67.27;96796.13;4953446;29;20134;-85
2023/05/03 04:41:21;;;;;;;;;;;12.10;72.80;;;11.15;67.30;96795.31;4937838;29;19929;-84
2023/05/03 04:43:49;;;;;;;;;;;12.10;74.00;;;11.16;67.47;96791.50;4953724;29;19923;-84
2023/05/03 04:46:18;;;;;;;;;;;12.10;73.20;;;11.17;67.47;96793.13;4937667;29;19945;-85
2023/05/03 04:48:49;;;;;;;;;;;12.10;73.30;;;11.17;67.80;96790.38;4937272;29;19922;-84
2023/05/03 04:51:17;;;;;;;;;;;12.20;73.50;;;11.17;67.46;96796.72;4953780;29;20344;-85
2023/05/03 04:53:46;;;;;;;;;;;12.20;73.30;;;11.17;67.63;96796.72;4937691;29;19929;-85
2023/05/03 04:56:24;;;;;;;;;;;12.20;73.40;;;11.18;67.85;96803.84;4937710;29;19942;-85
2023/05/03 04:58:53;;;;;;;;;;;12.20;73.50;;;11.17;67.90;96796.72;4953084;29;20238;-84
2023/05/03 05:01:26;;;;;;;;;;;12.20;73.80;;;11.19;68.13;96801.91;4953577;29;19923;-85
2023/05/03 05:04:00;;;;;;;;;;;12.20;74.00;;;11.18;68.15;96792.03;4969606;28;19923;-85
2023/05/03 05:06:35;;;;;;;;;;;12.20;74.30;;;11.20;68.63;96800.84;4918748;29;19922;-85
2023/05/03 05:09:04;;;;;;;;;;;12.20;74.40;;;11.19;68.31;96793.69;4933819;29;19929;-85
2023/05/03 05:11:32;;;;;;;;;;;12.20;74.50;;;11.21;69.31;96791.53;4934340;29;20118;-85
2023/05/03 05:14:01;;;;;;;;;;;12.20;74.80;;;11.22;68.82;96795.94;4918385;29;19929;-85
2023/05/03 05:16:29;;;;;;;;;;;12.20;74.90;;;11.21;68.88;96788.78;4934011;29;19922;-85
2023/05/03 05:18:57;;;;;;;;;;;12.20;75.00;;;11.23;69.39;96788.56;4917942;29;19929;-86
2023/05/03 05:21:29;;;;;;;;;;;12.20;75.10;;;11.25;69.28;96802.78;4949698;29;19922;-85
2023/05/03 05:23:57;;;;;;;;;;;12.20;75.30;;;11.25;69.17;96797.31;4953082;29;19922;-85
2023/05/03 05:26:26;;;;;;;;;;;12.20;75.20;;;11.27;69.08;96800.63;4937104;29;19922;-86
2023/05/03 05:28:55;;;;;;;;;;;12.30;75.30;;;11.27;69.17;96790.50;4936753;29;19922;-85
2023/05/03 05:31:24;;;;;;;;;;;12.20;75.20;;;11.29;69.41;96793.81;4953124;29;19922;-86
2023/05/03 05:33:52;;;;;;;;;;;12.30;75.40;;;11.32;69.44;96798.75;4937034;29;19923;-86
2023/05/03 05:36:20;;;;;;;;;;;12.30;75.40;;;11.31;69.19;96780.66;4952964;29;19922;-87
2023/05/03 05:38:52;;;;;;;;;;;12.30;75.20;;;11.36;69.04;96788.09;4952553;29;19922;-86
2023/05/03 05:41:20;;;;;;;;;;;12.30;75.10;;;11.39;69.13;96786.75;4937039;29;19930;-86
2023/05/03 05:43:48;;;;;;;;;;;12.30;75.10;;;11.41;69.11;96784.59;4936952;29;19944;-86
2023/05/03 05:46:18;;;;;;;;;;;12.40;75.10;;;11.41;69.17;96784.59;4953827;29;19928;-86
2023/05/03 05:48:46;;;;;;;;;;;12.40;75.10;;;11.45;69.09;96782.97;4936319;29;20232;-85
2023/05/03 05:51:15;;;;;;;;;;;12.40;75.80;;;11.48;68.93;96776.97;4952871;29;19929;-85
2023/05/03 05:53:43;;;;;;;;;;;12.40;74.90;;;11.51;68.88;96776.44;4936978;29;19930;-84
2023/05/03 05:56:13;;;;;;;;;;;12.50;74.90;;;11.55;68.99;96771.25;4952735;28;19933;-85
2023/05/03 05:58:42;;;;;;;;;;;12.50;74.80;;;11.56;68.98;96770.16;4936391;29;19922;-85
2023/05/03 06:01:10;;;;;;;;;;;12.50;74.70;;;11.56;68.70;96765.50;4936718;29;19923;-85
2023/05/03 06:03:39;;;;;;;;;;;12.50;74.60;;;11.58;68.72;96763.31;4952643;29;19923;-85
2023/05/03 06:06:09;;;;;;;;;;;12.50;74.60;;;11.60;68.87;96765.81;4952562;29;20222;-85
2023/05/03 06:08:37;;;;;;;;;;;12.50;74.60;;;11.59;68.69;96764.97;4952231;29;19922;-86
2023/05/03 06:11:06;;;;;;;;;;;12.60;74.50;;;11.64;68.46;96761.44;4952533;29;19922;-84
2023/05/03 06:13:37;;;;;;;;;;;12.60;74.50;;;11.66;68.52;96765.59;4952732;29;19922;-85
2023/05/03 06:16:07;;;;;;;;;;;12.60;74.40;;;11.68;68.66;96759.00;4936547;29;20004;-85
2023/05/03 06:18:35;;;;;;;;;;;12.60;74.40;;;11.70;68.43;96760.41;4968130;28;20165;-86
2023/05/03 06:21:03;;;;;;;;;;;12.70;74.40;;;11.74;68.19;96766.16;4952560;29;19926;-86
2023/05/03 06:23:32;;;;;;;;;;;12.70;74.40;;;11.78;68.35;96761.81;4968498;28;19933;-85
2023/05/03 06:26:01;;;;;;;;;;;12.70;74.30;;;11.82;68.25;96757.44;4952216;29;19922;-85
2023/05/03 06:28:29;;;;;;;;;;;12.80;74.30;;;11.90;68.30;96765.19;4952028;29;19931;-86
2023/05/03 06:30:59;;;;;;;;;;;12.80;74.10;;;11.94;68.05;96754.50;4952287;29;19929;-85
2023/05/03 06:33:29;;;;;;;;;;;12.80;74.00;;;11.96;68.02;96750.41;4952267;29;20206;-86
2023/05/03 06:35:58;;;;;;;;;;;12.90;74.00;;;12.03;67.71;96755.69;4936304;29;19928;-85
2023/05/03 06:38:44;;;;;;;;;;;12.90;73.90;;;12.08;67.65;96749.38;4950098;29;20469;-86
2023/05/03 06:41:16;;;;;;;;;;;13.00;73.80;;;12.14;67.66;96753.81;4915420;29;20198;-85
2023/05/03 06:43:44;;;;;;;;;;;13.00;73.60;;;12.19;67.50;96750.25;4917249;29;19923;-86
2023/05/03 06:46:15;;;;;;;;;;;13.10;73.40;;;12.22;67.42;96753.28;4932952;29;19923;-85
2023/05/03 06:48:43;;;;;;;;;;;13.10;73.30;;;12.26;67.14;96756.34;4932574;29;20117;-87
2023/05/03 06:51:11;;;;;;;;;;;13.10;73.10;;;12.30;66.95;96751.16;4938659;28;19965;-87
2023/05/03 06:53:39;;;;;;;;;;;13.20;73.10;;;12.34;67.15;96758.56;4935994;29;19923;-85
2023/05/03 06:56:08;;;;;;;;;;;13.20;72.90;;;12.37;66.76;96762.69;4936117;29;19933;-85
2023/05/03 06:58:36;;;;;;;;;;;13.30;72.80;;;12.37;66.90;96766.28;4951519;29;19937;-86
2023/05/03 07:01:04;;;;;;;;;;;13.30;72.70;;;12.38;66.88;96758.84;4940011;29;20114;-85
2023/05/03 07:03:33;;;;;;;;;;;13.30;72.60;;;12.37;66.68;96759.94;4936026;29;20122;-86
2023/05/03 07:06:02;;;;;;;;;;;13.30;72.50;;;12.37;66.77;96763.53;4936323;29;19923;-85
2023/05/03 07:08:30;;;;;;;;;;;13.30;72.50;;;12.37;66.64;96768.19;4935469;29;19931;-86
2023/05/03 07:10:58;;;;;;;;;;;13.30;72.40;;;12.35;67.02;96764.88;4937169;29;19923;-86
2023/05/03 07:13:26;;;;;;;;;;;13.30;72.40;;;12.36;66.56;96763.78;4935870;29;19923;-86
2023/05/03 07:15:53;;;;;;;;;;;13.30;72.40;;;12.38;66.77;96758.84;4935976;29;19945;-86
2023/05/03 07:18:22;;;;;;;;;;;13.30;72.40;;;12.39;66.61;96755.03;4935691;29;20215;-87
2023/05/03 07:20:51;;;;;;;;;;;13.30;72.30;;;12.40;66.43;96756.69;4936024;29;19929;-86
2023/05/03 07:23:19;;;;;;;;;;;13.30;72.30;;;12.43;66.27;96751.47;4951893;29;19923;-87
2023/05/03 07:25:47;;;;;;;;;;;13.30;72.30;;;12.45;66.23;96747.63;4935931;29;19922;-86
2023/05/03 07:28:16;;;;;;;;;;;13.30;72.20;;;12.44;66.17;96755.06;4935724;29;19930;-86
2023/05/03 07:30:45;;;;;;;;;;;13.30;72.10;;;12.43;66.30;96745.97;4935900;29;19923;-85
2023/05/03 07:33:13;;;;;;;;;;;13.30;72.10;;;12.46;66.38;96749.28;4935651;29;19923;-85
2023/05/03 07:35:41;;;;;;;;;;;13.30;72.10;;;12.45;66.31;96737.47;4935723;29;19930;-87
2023/05/03 07:38:11;;;;;;;;;;;13.30;72.10;;;12.48;66.05;96742.41;4935839;29;19923;-87
2023/05/03 07:40:40;;;;;;;;;;;13.40;72.00;;;12.51;66.05;96736.38;4935465;29;20210;-87
2023/05/03 07:43:08;;;;;;;;;;;13.40;72.10;;;12.53;65.98;96742.44;4935549;29;19922;-86
2023/05/03 07:45:37;;;;;;;;;;;13.40;72.00;;;12.54;66.24;96741.34;4935572;29;20105;-86
2023/05/03 07:48:05;;;;;;;;;;;13.40;72.00;;;12.54;66.14;96741.34;4935493;29;19929;-86
2023/05/03 07:50:33;;;;;;;;;;;13.40;71.90;;;12.57;66.22;96750.97;4935151;29;19929;-86
2023/05/03 07:53:01;;;;;;;;;;;13.40;71.90;;;12.54;66.13;96738.59;4919492;29;20218;-85
2023/05/03 07:55:31;;;;;;;;;;;13.40;71.90;;;12.57;66.13;96745.47;4935478;29;19930;-86
2023/05/03 07:58:00;;;;;;;;;;;13.50;71.90;;;12.58;66.18;96742.47;4935443;29;19937;-86
2023/05/03 08:00:27;;;;;;;;;;;13.50;72.10;;;12.56;66.35;96741.91;4935289;29;19927;-86
2023/05/03 08:02:56;;;;;;;;;;;13.50;72.10;;;12.55;66.47;96742.16;4935233;29;19929;-86
2023/05/03 08:05:24;;;;;;;;;;;13.50;72.10;;;12.54;66.16;96746.84;4935439;29;19922;-85
2023/05/03 08:07:52;;;;;;;;;;;13.40;72.00;;;12.53;66.16;96736.94;4935189;29;19937;-86
2023/05/03 08:10:22;;;;;;;;;;;13.40;72.10;;;12.49;66.56;96735.00;4935028;29;19929;-86
2023/05/03 08:12:51;;;;;;;;;;;13.40;72.10;;;12.48;66.38;96736.91;4950842;29;19923;-86
2023/05/03 08:15:19;;;;;;;;;;;13.40;72.20;;;12.48;66.62;96736.91;4935136;29;19923;-87
2023/05/03 08:17:48;;;;;;;;;;;13.40;72.30;;;12.46;66.52;96739.09;4951193;29;19922;-87
2023/05/03 08:20:16;;;;;;;;;;;13.40;72.30;;;12.45;66.49;96734.75;4936001;29;19929;-87
2023/05/03 08:22:44;;;;;;;;;;;13.40;72.40;;;12.43;66.60;96735.00;4934919;29;19945;-87
2023/05/03 08:25:12;;;;;;;;;;;13.30;72.50;;;12.41;66.93;96739.91;4919254;29;19923;-87
2023/05/03 08:27:40;;;;;;;;;;;13.30;72.60;;;12.39;66.90;96735.81;4934877;29;19922;-87
2023/05/03 08:30:10;;;;;;;;;;;13.30;72.60;;;12.38;67.02;96736.88;4934794;29;19923;-86
2023/05/03 08:32:38;;;;;;;;;;;13.30;72.70;;;12.36;66.99;96737.16;4934600;29;19929;-87
2023/05/03 08:35:06;;;;;;;;;;;13.30;72.90;;;12.34;67.13;96733.88;4919444;29;19922;-86
2023/05/03 08:37:40;;;;;;;;;;;13.30;72.90;;;12.34;67.24;96730.28;4935954;29;19923;-88
2023/05/03 08:40:10;;;;;;;;;;;13.30;73.00;;;12.32;67.00;96732.50;4918669;29;19923;-87
2023/05/03 08:42:40;;;;;;;;;;;13.30;73.00;;;12.33;67.18;96739.63;4934555;29;19922;-87
2023/05/03 08:45:13;;;;;;;;;;;13.30;73.10;;;12.32;67.45;96729.75;4938070;29;19929;-86
2023/05/03 08:47:43;;;;;;;;;;;13.20;73.10;;;12.30;67.37;96718.19;4953815;29;19922;-86
2023/05/03 08:50:11;;;;;;;;;;;13.20;73.00;;;12.30;67.23;96729.19;4937671;29;19929;-87
2023/05/03 08:52:40;;;;;;;;;;;13.20;73.10;;;12.29;67.14;96728.34;4937812;29;19934;-86
2023/05/03 08:55:08;;;;;;;;;;;13.20;73.10;;;12.28;67.41;96724.78;4937795;29;19922;-86
2023/05/03 08:57:36;;;;;;;;;;;13.20;73.20;;;12.27;67.49;96719.53;4953807;29;19937;-86
2023/05/03 09:00:09;;;;;;;;;;;13.20;73.20;;;12.25;67.37;96717.09;4953039;29;19923;-87
2023/05/03 09:02:39;;;;;;;;;;;13.20;73.20;;;12.24;67.48;96715.44;4959493;29;19922;-87
2023/05/03 09:05:31;;;;;;;;;;;13.20;73.30;;;12.23;67.67;96708.28;4953501;29;19923;-87
2023/05/03 09:08:03;;;;;;;;;;;13.20;73.40;;;12.22;67.58;96708.56;4937633;29;19950;-86
2023/05/03 09:10:31;;;;;;;;;;;13.20;73.40;;;12.21;67.63;96710.47;4969218;28;19923;-86
2023/05/03 09:12:59;;;;;;;;;;;13.20;73.40;;;12.19;67.71;96707.19;4953296;29;19944;-86
2023/05/03 09:15:29;;;;;;;;;;;13.20;73.50;;;12.18;67.81;96710.19;4953393;29;19922;-87
2023/05/03 09:18:12;;;;;;;;;;;13.20;73.60;;;12.18;67.96;96710.19;4969579;28;20210;-87
2023/05/03 09:20:41;;;;;;;;;;;13.10;73.60;;;12.17;67.46;96706.63;4952986;29;19929;-86
2023/05/03 09:23:09;;;;;;;;;;;13.10;73.70;;;12.16;67.87;96701.38;4952332;29;19929;-86
2023/05/03 09:25:41;;;;;;;;;;;13.10;73.80;;;12.16;68.12;96702.22;4969274;28;19922;-87
2023/05/03 09:28:09;;;;;;;;;;;13.10;73.70;;;12.16;67.96;96704.13;4953203;29;19922;-87
2023/05/03 09:30:37;;;;;;;;;;;13.10;73.70;;;12.16;67.86;96713.22;4953009;29;20117;-87
2023/05/03 09:33:06;;;;;;;;;;;13.10;73.90;;;12.16;67.76;96704.13;4937092;29;19929;-87
2023/05/03 09:35:37;;;;;;;;;;;13.10;73.80;;;12.15;68.16;96697.84;4953018;29;20120;-87
2023/05/03 09:38:06;;;;;;;;;;;13.10;73.80;;;12.15;67.81;96689.59;4953165;29;19923;-86
2023/05/03 09:40:33;;;;;;;;;;;13.10;73.90;;;12.16;67.82;96696.75;4939355;29;19923;-87
2023/05/03 09:43:06;;;;;;;;;;;13.10;73.70;;;12.16;68.03;96688.50;4918055;29;19922;-87
2023/05/03 09:45:34;;;;;;;;;;;13.10;73.80;;;12.18;67.84;96685.47;4933875;29;19929;-87
2023/05/03 09:48:03;;;;;;;;;;;13.10;73.70;;;12.19;68.25;96689.88;4918063;29;19927;-87
2023/05/03 09:50:33;;;;;;;;;;;13.10;73.70;;;12.19;67.81;96685.22;4917524;29;19926;-87
2023/05/03 09:53:03;;;;;;;;;;;13.20;73.70;;;12.19;67.83;96685.22;4918253;29;19923;-87
2023/05/03 09:55:33;;;;;;;;;;;13.20;73.70;;;12.21;68.11;96679.47;4933690;29;19929;-86
2023/05/03 09:58:03;;;;;;;;;;;13.20;73.70;;;12.20;68.09;96673.13;4934809;29;19923;-87
2023/05/03 10:00:32;;;;;;;;;;;13.20;73.70;;;12.22;68.04;96672.88;4933238;29;20009;-86
2023/05/03 10:03:00;;;;;;;;;;;13.20;73.70;;;12.22;67.91;96672.88;4933466;29;19938;-86
2023/05/03 10:05:28;;;;;;;;;;;13.20;73.70;;;12.22;67.94;96673.69;4933540;29;19931;-87
2023/05/03 10:07:56;;;;;;;;;;;13.20;73.70;;;12.23;67.84;96664.38;4917669;29;19929;-87
2023/05/03 10:10:26;;;;;;;;;;;13.20;73.70;;;12.21;67.86;96661.06;4948846;29;19930;-88
2023/05/03 10:12:54;;;;;;;;;;;13.20;73.60;;;12.24;67.92;96656.97;4933466;29;19922;-86
2023/05/03 10:15:22;;;;;;;;;;;13.20;73.70;;;12.22;68.12;96659.97;4917790;29;19933;-87
2023/05/03 10:17:50;;;;;;;;;;;13.20;73.60;;;12.23;67.83;96653.38;4933595;29;19923;-87
2023/05/03 10:20:22;;;;;;;;;;;13.20;73.60;;;12.24;67.89;96660.53;4916900;29;19923;-86
2023/05/03 10:23:10;;;;;;;;;;;13.20;73.70;;;12.23;67.82;96653.38;4933325;29;19922;-87
2023/05/03 10:25:40;;;;;;;;;;;13.20;73.60;;;12.25;68.00;96659.44;4933347;29;19923;-86
2023/05/03 10:28:08;;;;;;;;;;;13.20;73.70;;;12.22;67.80;96651.72;4917460;29;19929;-86
2023/05/03 10:30:36;;;;;;;;;;;13.20;73.70;;;12.22;67.83;96646.25;4932853;29;19923;-86
2023/05/03 10:33:30;;;;;;;;;;;13.20;73.70;;;12.23;67.99;96650.63;4917426;29;19929;-86
2023/05/03 10:36:00;;;;;;;;;;;13.20;73.80;;;12.23;68.24;96647.91;4946189;29;19929;-86
2023/05/03 10:38:28;;;;;;;;;;;13.20;73.80;;;12.22;67.94;96645.44;4971213;28;19923;-87
2023/05/03 10:40:59;;;;;;;;;;;13.20;73.90;;;12.21;68.02;96641.03;4945889;29;19922;-87
2023/05/03 10:43:43;;;;;;;;;;;13.20;73.80;;;12.22;68.13;96646.25;4955586;29;19922;-86
2023/05/03 10:46:33;;;;;;;;;;;13.20;73.80;;;12.23;68.14;96641.59;4939740;29;19929;-87
2023/05/03 10:49:20;;;;;;;;;;;13.20;73.90;;;12.21;68.03;96639.09;4956155;29;19922;-87
2023/05/03 10:51:48;;;;;;;;;;;13.20;73.90;;;12.20;68.29;96645.69;4955731;29;19929;-87
2023/05/03 10:54:18;;;;;;;;;;;13.20;74.00;;;12.21;68.27;96644.59;4956529;29;19929;-86
2023/05/03 10:56:51;;;;;;;;;;;13.20;74.80;;;12.21;67.92;96633.63;4939517;29;19929;-88
2023/05/03 10:59:20;;;;;;;;;;;13.20;74.00;;;12.21;68.16;96633.63;4938941;29;19923;-86
2023/05/03 11:01:50;;;;;;;;;;;13.20;74.00;;;12.20;68.57;96634.69;4952209;29;19945;-87
2023/05/03 11:04:33;;;;;;;;;;;13.20;74.00;;;12.19;68.24;96624.84;4936257;29;19923;-87
2023/05/03 11:07:01;;;;;;;;;;;13.20;74.00;;;12.20;68.46;96634.69;4968741;28;19929;-87
2023/05/03 11:09:33;;;;;;;;;;;13.20;74.10;;;12.18;68.38;96628.69;4951702;29;19945;-88
2023/05/03 11:12:07;;;;;;;;;;;13.20;74.00;;;12.19;68.09;96624.84;4968242;28;19949;-87
2023/05/03 11:14:35;;;;;;;;;;;13.20;74.20;;;12.20;68.32;96628.41;4936015;29;20125;-87
2023/05/03 11:17:03;;;;;;;;;;;13.20;74.10;;;12.19;68.51;96629.50;4951862;29;19922;-88
2023/05/03 11:19:31;;;;;;;;;;;13.20;74.10;;;12.18;68.17;96625.94;4936674;29;19923;-86
2023/05/03 11:21:59;;;;;;;;;;;13.20;74.10;;;12.21;68.50;96627.31;4932403;29;19922;-87
2023/05/03 11:24:27;;;;;;;;;;;13.20;74.20;;;12.20;68.24;96626.47;4939241;29;19929;-87
2023/05/03 11:26:56;;;;;;;;;;;13.20;74.20;;;12.20;68.49;96623.72;4938935;29;19956;-87